XMF YPJT-YPJT
Flight info
| Callsign | XMF |
|---|---|
| Flight time | N/A |
| Altitude | 5000 |
| Route | PH |
| Aircraft | TBM9/L-SDFGRWY/S |
Departure
| Time | 2026-04-26 12:59 |
|---|---|
| Airport | Perth Jandakot Airport (YPJT) |
Arrival
| Time | N/A |
|---|---|
| Airport | Perth Jandakot Airport (YPJT) |
| Time | Latitude | Longitude | Altitude | Speed | Heading |
|---|---|---|---|---|---|
| 2026-04-26 12:34 | -32.09730 | 115.87559 | 99 ft | 0 kts | 150° |
| 2026-04-26 12:54 | -32.09748 | 115.87595 | 99 ft | 11 kts | 111° |
| 2026-04-26 12:54 | -32.09798 | 115.87595 | 99 ft | 8 kts | 242° |
| 2026-04-26 12:55 | -32.09835 | 115.87536 | 99 ft | 10 kts | 234° |
| 2026-04-26 12:55 | -32.09872 | 115.87473 | 99 ft | 8 kts | 234° |
| 2026-04-26 12:55 | -32.09904 | 115.87420 | 99 ft | 8 kts | 233° |
| 2026-04-26 12:55 | -32.09941 | 115.87361 | 99 ft | 10 kts | 236° |
| 2026-04-26 12:56 | -32.09960 | 115.87329 | 99 ft | 0 kts | 234° |
| 2026-04-26 12:58 | -32.10013 | 115.87299 | 98 ft | 10 kts | 133° |
| 2026-04-26 12:58 | -32.10073 | 115.87452 | 98 ft | 48 kts | 113° |
| 2026-04-26 12:58 | -32.10309 | 115.88066 | 150 ft | 106 kts | 111° |
| 2026-04-26 12:58 | -32.10559 | 115.88961 | 586 ft | 119 kts | 114° |
| 2026-04-26 12:59 | -32.10848 | 115.89835 | 908 ft | 114 kts | 118° |
| 2026-04-26 12:59 | -32.11467 | 115.90340 | 904 ft | 116 kts | 174° |
| 2026-04-26 12:59 | -32.12286 | 115.90409 | 942 ft | 119 kts | 173° |
| 2026-04-26 12:59 | -32.13116 | 115.90467 | 983 ft | 121 kts | 188° |
| 2026-04-26 13:00 | -32.13733 | 115.89829 | 1032 ft | 127 kts | 251° |
| 2026-04-26 13:00 | -32.13574 | 115.88811 | 1127 ft | 130 kts | 300° |
| 2026-04-26 13:00 | -32.13157 | 115.87854 | 1240 ft | 131 kts | 301° |
| 2026-04-26 13:00 | -32.12475 | 115.87185 | 1346 ft | 129 kts | 335° |
| 2026-04-26 13:01 | -32.11694 | 115.86658 | 1468 ft | 129 kts | 333° |
| 2026-04-26 13:01 | -32.10919 | 115.86125 | 1573 ft | 130 kts | 333° |
| 2026-04-26 13:01 | -32.10141 | 115.85580 | 1673 ft | 129 kts | 334° |
| 2026-04-26 13:01 | -32.09317 | 115.85209 | 1793 ft | 127 kts | 349° |
| 2026-04-26 13:02 | -32.08462 | 115.84923 | 1911 ft | 128 kts | 348° |
| 2026-04-26 13:02 | -32.07617 | 115.84621 | 2056 ft | 129 kts | 348° |
| 2026-04-26 13:02 | -32.06768 | 115.84325 | 2474 ft | 124 kts | 348° |
| 2026-04-26 13:02 | -32.05951 | 115.84038 | 2849 ft | 122 kts | 348° |
| 2026-04-26 13:03 | -32.05137 | 115.83770 | 3227 ft | 121 kts | 348° |
| 2026-04-26 13:03 | -32.04329 | 115.83520 | 3583 ft | 119 kts | 348° |
| 2026-04-26 13:03 | -32.03523 | 115.83288 | 3932 ft | 120 kts | 348° |
| 2026-04-26 13:03 | -32.02710 | 115.83074 | 4288 ft | 119 kts | 348° |
| 2026-04-26 13:04 | -32.01894 | 115.82875 | 4390 ft | 117 kts | 349° |
| 2026-04-26 13:04 | -32.01104 | 115.82682 | 4391 ft | 117 kts | 348° |
| 2026-04-26 13:04 | -32.00315 | 115.82495 | 4187 ft | 116 kts | 351° |
| 2026-04-26 13:04 | -31.99495 | 115.82434 | 3887 ft | 118 kts | 359° |
| 2026-04-26 13:05 | -31.98677 | 115.82397 | 3625 ft | 117 kts | 359° |
| 2026-04-26 13:05 | -31.97864 | 115.82343 | 3385 ft | 116 kts | 359° |
| 2026-04-26 13:05 | -31.97057 | 115.82278 | 3144 ft | 116 kts | 359° |
| 2026-04-26 13:05 | -31.96253 | 115.82195 | 2876 ft | 115 kts | 359° |
| 2026-04-26 13:06 | -31.95444 | 115.82092 | 2819 ft | 131 kts | 357° |
| 2026-04-26 13:06 | -31.94484 | 115.81991 | 2809 ft | 135 kts | 359° |
| 2026-04-26 13:06 | -31.93590 | 115.81888 | 2808 ft | 125 kts | 359° |
| 2026-04-26 13:06 | -31.92744 | 115.81785 | 2801 ft | 120 kts | 358° |
| 2026-04-26 13:07 | -31.91920 | 115.81688 | 2792 ft | 118 kts | 358° |
| 2026-04-26 13:07 | -31.91116 | 115.81587 | 2792 ft | 115 kts | 358° |
| 2026-04-26 13:07 | -31.90296 | 115.81484 | 2806 ft | 131 kts | 358° |
| 2026-04-26 13:07 | -31.89646 | 115.81417 | 2817 ft | 146 kts | 359° |
| 2026-04-26 13:08 | -31.88258 | 115.81296 | 2816 ft | 153 kts | 359° |
| 2026-04-26 13:08 | -31.87157 | 115.81200 | 2816 ft | 162 kts | 359° |
| 2026-04-26 13:08 | -31.86389 | 115.81135 | 2812 ft | 165 kts | 360° |
| 2026-04-26 13:08 | -31.85315 | 115.81490 | 2813 ft | 165 kts | 39° |
| 2026-04-26 13:09 | -31.84751 | 115.82630 | 2810 ft | 166 kts | 66° |
| 2026-04-26 13:09 | -31.83997 | 115.83626 | 2804 ft | 166 kts | 34° |
| 2026-04-26 13:09 | -31.82901 | 115.84051 | 2795 ft | 168 kts | 11° |
| 2026-04-26 13:09 | -31.81781 | 115.84377 | 2806 ft | 166 kts | 27° |
| 2026-04-26 13:10 | -31.80806 | 115.85095 | 2808 ft | 166 kts | 42° |
| 2026-04-26 13:10 | -31.80055 | 115.86125 | 2814 ft | 167 kts | 57° |
| 2026-04-26 13:10 | -31.79678 | 115.87413 | 2811 ft | 169 kts | 80° |
| 2026-04-26 13:10 | -31.79569 | 115.88793 | 2811 ft | 170 kts | 83° |
| 2026-04-26 13:11 | -31.79467 | 115.90179 | 2810 ft | 170 kts | 83° |
| 2026-04-26 13:11 | -31.79367 | 115.91563 | 2788 ft | 170 kts | 83° |
| 2026-04-26 13:11 | -31.79268 | 115.92944 | 2786 ft | 169 kts | 83° |
| 2026-04-26 13:11 | -31.79169 | 115.94327 | 2784 ft | 171 kts | 83° |
| 2026-04-26 13:12 | -31.79070 | 115.95717 | 2783 ft | 171 kts | 83° |
| 2026-04-26 13:12 | -31.79034 | 115.97113 | 2787 ft | 172 kts | 89° |
| 2026-04-26 13:12 | -31.79250 | 115.98503 | 2787 ft | 175 kts | 104° |
| 2026-04-26 13:12 | -31.79642 | 115.99855 | 2787 ft | 175 kts | 106° |
| 2026-04-26 13:13 | -31.80180 | 116.01133 | 2789 ft | 179 kts | 130° |
| 2026-04-26 13:13 | -31.81311 | 116.01742 | 2816 ft | 184 kts | 174° |
| 2026-04-26 13:13 | -31.82485 | 116.01352 | 2428 ft | 179 kts | 218° |
| 2026-04-26 13:13 | -31.83265 | 116.00301 | 2312 ft | 161 kts | 221° |
| 2026-04-26 13:14 | -31.84134 | 115.99550 | 1981 ft | 153 kts | 211° |
| 2026-04-26 13:14 | -31.85071 | 115.99041 | 1655 ft | 141 kts | 193° |
| 2026-04-26 13:14 | -31.85969 | 115.98689 | 1430 ft | 131 kts | 198° |
| 2026-04-26 13:14 | -31.86828 | 115.98434 | 1161 ft | 126 kts | 185° |
| 2026-04-26 13:15 | -31.87705 | 115.98305 | 926 ft | 135 kts | 187° |
| 2026-04-26 13:15 | -31.88720 | 115.98031 | 896 ft | 161 kts | 195° |
| 2026-04-26 13:15 | -31.89868 | 115.97676 | 763 ft | 175 kts | 194° |
| 2026-04-26 13:15 | -31.91033 | 115.97278 | 855 ft | 170 kts | 201° |
| 2026-04-26 13:16 | -31.92237 | 115.97013 | 607 ft | 181 kts | 189° |
| 2026-04-26 13:16 | -31.93452 | 115.96649 | 617 ft | 171 kts | 197° |
| 2026-04-26 13:16 | -31.94591 | 115.96266 | 937 ft | 172 kts | 194° |
| 2026-04-26 13:16 | -31.95781 | 115.95948 | 1110 ft | 179 kts | 191° |
| 2026-04-26 13:17 | -31.98247 | 115.95215 | 1440 ft | 188 kts | 193° |
| 2026-04-26 13:17 | -31.99512 | 115.94828 | 1571 ft | 192 kts | 192° |
| 2026-04-26 13:18 | -32.01995 | 115.93943 | 1775 ft | 179 kts | 212° |
| 2026-04-26 13:18 | -32.02693 | 115.92757 | 1782 ft | 181 kts | 259° |
| 2026-04-26 13:18 | -32.02530 | 115.89811 | 2050 ft | 183 kts | 279° |
| 2026-04-26 13:19 | -32.02402 | 115.88344 | 2643 ft | 179 kts | 279° |
| 2026-04-26 13:19 | -32.02290 | 115.86890 | 3183 ft | 177 kts | 279° |
| 2026-04-26 13:19 | -32.02103 | 115.85486 | 3724 ft | 170 kts | 298° |
| 2026-04-26 13:19 | -32.01268 | 115.84539 | 4008 ft | 178 kts | 339° |
| 2026-04-26 13:20 | -32.00003 | 115.84136 | 4011 ft | 198 kts | 349° |
| 2026-04-26 13:20 | -31.98618 | 115.83786 | 4011 ft | 208 kts | 349° |
| 2026-04-26 13:20 | -31.97182 | 115.83432 | 4010 ft | 213 kts | 349° |
| 2026-04-26 13:20 | -31.95730 | 115.83074 | 3964 ft | 202 kts | 349° |
| 2026-04-26 13:21 | -31.94292 | 115.82710 | 3396 ft | 215 kts | 350° |
| 2026-04-26 13:21 | -31.93324 | 115.82453 | 3205 ft | 215 kts | 349° |
| 2026-04-26 13:21 | -31.91376 | 115.81919 | 2837 ft | 210 kts | 349° |
| 2026-04-26 13:21 | -31.90033 | 115.81524 | 2799 ft | 190 kts | 348° |
| 2026-04-26 13:22 | -31.88784 | 115.81189 | 2795 ft | 179 kts | 358° |
| 2026-04-26 13:22 | -31.87584 | 115.81401 | 2796 ft | 172 kts | 18° |
| 2026-04-26 13:22 | -31.86432 | 115.81792 | 2794 ft | 173 kts | 18° |
| 2026-04-26 13:22 | -31.85277 | 115.82184 | 2792 ft | 173 kts | 18° |
| 2026-04-26 13:23 | -31.84164 | 115.82653 | 2796 ft | 172 kts | 26° |
| 2026-04-26 13:23 | -31.83172 | 115.83425 | 2803 ft | 171 kts | 40° |
| 2026-04-26 13:23 | -31.82315 | 115.84390 | 2806 ft | 171 kts | 50° |
| 2026-04-26 13:23 | -31.81663 | 115.85562 | 2810 ft | 172 kts | 61° |
| 2026-04-26 13:24 | -31.81128 | 115.86824 | 2807 ft | 173 kts | 63° |
| 2026-04-26 13:24 | -31.80639 | 115.88118 | 2809 ft | 173 kts | 66° |
| 2026-04-26 13:24 | -31.80206 | 115.89434 | 2807 ft | 173 kts | 68° |
| 2026-04-26 13:24 | -31.79781 | 115.90756 | 2810 ft | 173 kts | 68° |
| 2026-04-26 13:25 | -31.79356 | 115.92076 | 2786 ft | 173 kts | 68° |
| 2026-04-26 13:25 | -31.78933 | 115.93394 | 2785 ft | 172 kts | 68° |
| 2026-04-26 13:25 | -31.78510 | 115.94712 | 2840 ft | 173 kts | 70° |
| 2026-04-26 13:25 | -31.78055 | 115.96065 | 2792 ft | 180 kts | 68° |
| 2026-04-26 13:26 | -31.77589 | 115.97438 | 2790 ft | 181 kts | 73° |
| 2026-04-26 13:26 | -31.77658 | 115.98886 | 2807 ft | 181 kts | 116° |
| 2026-04-26 13:26 | -31.78518 | 115.99944 | 2805 ft | 181 kts | 146° |
| 2026-04-26 13:26 | -31.79593 | 116.00736 | 2696 ft | 187 kts | 160° |
| 2026-04-26 13:27 | -31.80879 | 116.00760 | 2474 ft | 191 kts | 201° |
| 2026-04-26 13:27 | -31.82069 | 116.00051 | 2216 ft | 193 kts | 202° |
| 2026-04-26 13:27 | -31.83368 | 115.99609 | 1962 ft | 195 kts | 196° |
| 2026-04-26 13:27 | -31.84688 | 115.99216 | 1701 ft | 196 kts | 195° |
| 2026-04-26 13:28 | -31.86010 | 115.98836 | 1441 ft | 196 kts | 195° |
| 2026-04-26 13:28 | -31.87328 | 115.98453 | 1180 ft | 195 kts | 195° |
| 2026-04-26 13:28 | -31.88574 | 115.98087 | 932 ft | 174 kts | 195° |
| 2026-04-26 13:28 | -31.89694 | 115.97767 | 710 ft | 157 kts | 195° |
| 2026-04-26 13:29 | -31.90707 | 115.97467 | 512 ft | 144 kts | 195° |
| 2026-04-26 13:29 | -31.91353 | 115.97284 | 405 ft | 153 kts | 195° |
| 2026-04-26 13:29 | -31.92173 | 115.96011 | 737 ft | 160 kts | 271° |
| 2026-04-26 13:29 | -31.91994 | 115.94693 | 967 ft | 168 kts | 281° |
| 2026-04-26 13:30 | -31.91773 | 115.93328 | 1302 ft | 165 kts | 280° |
| 2026-04-26 13:30 | -31.91569 | 115.92013 | 1702 ft | 164 kts | 281° |
| 2026-04-26 13:30 | -31.91349 | 115.90687 | 2047 ft | 165 kts | 282° |
| 2026-04-26 13:30 | -31.91123 | 115.89358 | 2394 ft | 166 kts | 282° |
| 2026-04-26 13:31 | -31.90897 | 115.88041 | 2732 ft | 167 kts | 282° |
| 2026-04-26 13:31 | -31.90698 | 115.86693 | 3072 ft | 168 kts | 279° |
| 2026-04-26 13:31 | -31.90176 | 115.85499 | 3410 ft | 169 kts | 320° |
| 2026-04-26 13:31 | -31.89058 | 115.85129 | 3741 ft | 171 kts | 7° |
| 2026-04-26 13:32 | -31.87921 | 115.85521 | 3995 ft | 177 kts | 19° |
| 2026-04-26 13:32 | -31.86817 | 115.85963 | 3989 ft | 157 kts | 19° |
| 2026-04-26 13:32 | -31.85826 | 115.86359 | 3989 ft | 145 kts | 19° |
| 2026-04-26 13:32 | -31.84892 | 115.86733 | 3992 ft | 139 kts | 19° |
| 2026-04-26 13:33 | -31.83945 | 115.87113 | 3996 ft | 152 kts | 19° |
| 2026-04-26 13:33 | -31.82905 | 115.87531 | 4000 ft | 163 kts | 19° |
| 2026-04-26 13:33 | -31.81806 | 115.87976 | 4013 ft | 170 kts | 19° |
| 2026-04-26 13:33 | -31.80673 | 115.88436 | 4009 ft | 174 kts | 19° |
| 2026-04-26 13:34 | -31.79524 | 115.88901 | 4012 ft | 175 kts | 19° |
| 2026-04-26 13:34 | -31.78366 | 115.89369 | 4010 ft | 176 kts | 19° |
| 2026-04-26 13:34 | -31.77208 | 115.89838 | 4011 ft | 172 kts | 19° |
| 2026-04-26 13:34 | -31.76472 | 115.90137 | 3981 ft | 167 kts | 19° |
| 2026-04-26 13:35 | -31.75009 | 115.90728 | 3856 ft | 166 kts | 19° |
| 2026-04-26 13:35 | -31.73917 | 115.91169 | 3765 ft | 166 kts | 19° |
| 2026-04-26 13:35 | -31.72828 | 115.91609 | 3677 ft | 165 kts | 19° |
| 2026-04-26 13:35 | -31.71742 | 115.92048 | 3581 ft | 165 kts | 19° |
| 2026-04-26 13:36 | -31.70656 | 115.92488 | 3494 ft | 165 kts | 19° |
| 2026-04-26 13:36 | -31.69711 | 115.93206 | 3410 ft | 165 kts | 55° |
| 2026-04-26 13:36 | -31.69488 | 115.94491 | 3328 ft | 165 kts | 103° |
| 2026-04-26 13:36 | -31.70133 | 115.95561 | 3246 ft | 164 kts | 145° |
| 2026-04-26 13:37 | -31.71081 | 115.96281 | 3151 ft | 164 kts | 149° |
| 2026-04-26 13:37 | -31.72046 | 115.97000 | 3076 ft | 164 kts | 149° |
| 2026-04-26 13:37 | -31.73010 | 115.97716 | 2990 ft | 164 kts | 149° |
| 2026-04-26 13:37 | -31.73978 | 115.98433 | 2905 ft | 164 kts | 149° |
| 2026-04-26 13:38 | -31.74942 | 115.99148 | 2816 ft | 164 kts | 149° |
| 2026-04-26 13:38 | -31.75894 | 115.99853 | 2800 ft | 160 kts | 149° |
| 2026-04-26 13:38 | -31.76828 | 116.00546 | 2798 ft | 158 kts | 149° |
| 2026-04-26 13:38 | -31.77792 | 116.01142 | 2801 ft | 156 kts | 169° |
| 2026-04-26 13:39 | -31.78838 | 116.00953 | 2801 ft | 154 kts | 199° |
| 2026-04-26 13:39 | -31.79901 | 116.00620 | 2643 ft | 162 kts | 195° |
| 2026-04-26 13:39 | -31.81018 | 116.00291 | 2426 ft | 168 kts | 195° |
| 2026-04-26 13:39 | -31.82161 | 115.99960 | 2201 ft | 170 kts | 196° |
| 2026-04-26 13:40 | -31.83313 | 115.99623 | 1972 ft | 171 kts | 195° |
| 2026-04-26 13:40 | -31.84468 | 115.99287 | 1744 ft | 171 kts | 195° |
| 2026-04-26 13:40 | -31.85622 | 115.98951 | 1517 ft | 171 kts | 195° |
| 2026-04-26 13:40 | -31.86773 | 115.98614 | 1290 ft | 170 kts | 195° |
| 2026-04-26 13:41 | -31.87923 | 115.98281 | 1064 ft | 170 kts | 195° |
| 2026-04-26 13:41 | -31.89074 | 115.97996 | 834 ft | 169 kts | 191° |
| 2026-04-26 13:41 | -31.90056 | 115.97299 | 883 ft | 169 kts | 233° |
| 2026-04-26 13:41 | -31.90700 | 115.96159 | 1135 ft | 168 kts | 238° |
| 2026-04-26 13:42 | -31.91339 | 115.95010 | 1370 ft | 168 kts | 238° |
| 2026-04-26 13:42 | -31.91980 | 115.93853 | 1597 ft | 169 kts | 238° |
| 2026-04-26 13:42 | -31.92623 | 115.92688 | 1824 ft | 169 kts | 238° |
| 2026-04-26 13:42 | -31.93267 | 115.91523 | 2051 ft | 170 kts | 238° |
| 2026-04-26 13:43 | -31.93913 | 115.90354 | 2274 ft | 171 kts | 238° |
| 2026-04-26 13:43 | -31.94560 | 115.89181 | 2494 ft | 171 kts | 238° |
| 2026-04-26 13:43 | -31.95209 | 115.88004 | 2714 ft | 172 kts | 238° |
| 2026-04-26 13:43 | -31.95839 | 115.86864 | 2800 ft | 160 kts | 238° |
| 2026-04-26 13:44 | -31.96406 | 115.85843 | 2837 ft | 140 kts | 238° |
| 2026-04-26 13:44 | -31.96636 | 115.84812 | 3002 ft | 130 kts | 269° |
| 2026-04-26 13:44 | -31.96662 | 115.83745 | 3065 ft | 131 kts | 268° |
| 2026-04-26 13:44 | -31.96694 | 115.82687 | 3142 ft | 131 kts | 268° |
| 2026-04-26 13:45 | -31.96725 | 115.81618 | 3221 ft | 131 kts | 268° |
| 2026-04-26 13:45 | -31.96756 | 115.80548 | 3296 ft | 131 kts | 269° |
| 2026-04-26 13:45 | -31.96842 | 115.79483 | 3370 ft | 131 kts | 258° |
| 2026-04-26 13:45 | -31.96970 | 115.78429 | 3441 ft | 131 kts | 276° |
| 2026-04-26 13:46 | -31.96825 | 115.77365 | 3539 ft | 135 kts | 278° |
| 2026-04-26 13:46 | -31.96721 | 115.76305 | 3941 ft | 125 kts | 276° |
| 2026-04-26 13:46 | -31.96615 | 115.75185 | 4008 ft | 149 kts | 277° |
| 2026-04-26 13:46 | -31.96494 | 115.73906 | 4012 ft | 164 kts | 277° |
| 2026-04-26 13:47 | -31.96369 | 115.72528 | 4012 ft | 173 kts | 276° |
| 2026-04-26 13:47 | -31.96243 | 115.71101 | 4011 ft | 177 kts | 276° |
| 2026-04-26 13:47 | -31.96115 | 115.69644 | 4007 ft | 179 kts | 276° |
| 2026-04-26 13:47 | -31.95987 | 115.68182 | 4006 ft | 180 kts | 276° |
| 2026-04-26 13:48 | -31.95859 | 115.66713 | 4006 ft | 180 kts | 276° |
| 2026-04-26 13:48 | -31.95730 | 115.65240 | 4011 ft | 181 kts | 276° |
| 2026-04-26 13:48 | -31.95600 | 115.63769 | 4003 ft | 181 kts | 276° |
| 2026-04-26 13:48 | -31.95471 | 115.62296 | 4010 ft | 181 kts | 276° |
| 2026-04-26 13:49 | -31.95341 | 115.60824 | 3998 ft | 181 kts | 276° |
| 2026-04-26 13:49 | -31.95211 | 115.59348 | 4002 ft | 181 kts | 276° |
| 2026-04-26 13:49 | -31.95080 | 115.57875 | 4004 ft | 181 kts | 276° |
| 2026-04-26 13:49 | -31.94949 | 115.56400 | 4005 ft | 181 kts | 276° |
| 2026-04-26 13:50 | -31.94819 | 115.54928 | 4007 ft | 181 kts | 276° |
| 2026-04-26 13:50 | -31.94688 | 115.53454 | 4006 ft | 181 kts | 276° |
| 2026-04-26 13:50 | -31.94557 | 115.51979 | 4006 ft | 181 kts | 276° |
| 2026-04-26 13:50 | -31.94426 | 115.50504 | 4006 ft | 181 kts | 276° |
| 2026-04-26 13:51 | -31.94294 | 115.49029 | 4005 ft | 181 kts | 276° |
| 2026-04-26 13:51 | -31.94163 | 115.47551 | 4004 ft | 181 kts | 276° |
| 2026-04-26 13:51 | -31.94075 | 115.46574 | 4004 ft | 181 kts | 276° |
| 2026-04-26 13:51 | -31.93892 | 115.44545 | 3720 ft | 192 kts | 277° |
| 2026-04-26 13:52 | -31.93796 | 115.43495 | 3532 ft | 196 kts | 277° |
| 2026-04-26 13:52 | -31.93651 | 115.41893 | 3257 ft | 197 kts | 276° |
| 2026-04-26 13:52 | -31.93507 | 115.40285 | 2992 ft | 198 kts | 276° |
| 2026-04-26 13:52 | -31.93316 | 115.38157 | 2644 ft | 197 kts | 276° |
| 2026-04-26 13:53 | -31.93220 | 115.37074 | 2466 ft | 196 kts | 276° |
| 2026-04-26 13:53 | -31.93353 | 115.35489 | 2197 ft | 194 kts | 253° |
| 2026-04-26 13:53 | -31.93911 | 115.34182 | 1961 ft | 166 kts | 234° |
| 2026-04-26 13:53 | -31.94669 | 115.33288 | 1794 ft | 141 kts | 217° |
| 2026-04-26 13:54 | -31.95526 | 115.32724 | 1789 ft | 145 kts | 203° |
| 2026-04-26 13:54 | -31.96524 | 115.32439 | 1790 ft | 150 kts | 187° |
| 2026-04-26 13:54 | -31.97570 | 115.32496 | 1791 ft | 152 kts | 170° |
| 2026-04-26 13:55 | -31.99559 | 115.33351 | 1789 ft | 154 kts | 148° |
| 2026-04-26 13:55 | -32.00082 | 115.33940 | 1789 ft | 155 kts | 128° |
| 2026-04-26 13:55 | -31.99593 | 115.36464 | 1791 ft | 154 kts | 27° |
| 2026-04-26 13:56 | -31.98557 | 115.36631 | 1790 ft | 153 kts | 347° |
| 2026-04-26 13:56 | -31.97688 | 115.35963 | 1790 ft | 152 kts | 306° |
| 2026-04-26 13:56 | -31.97388 | 115.34802 | 1789 ft | 148 kts | 267° |
| 2026-04-26 13:56 | -31.97709 | 115.33807 | 1785 ft | 121 kts | 233° |
| 2026-04-26 13:57 | -31.98383 | 115.33225 | 1795 ft | 133 kts | 201° |
| 2026-04-26 13:57 | -31.99348 | 115.33184 | 1797 ft | 145 kts | 163° |
| 2026-04-26 13:57 | -32.00173 | 115.33859 | 1800 ft | 148 kts | 129° |
| 2026-04-26 13:57 | -32.00526 | 115.34985 | 1799 ft | 149 kts | 94° |
| 2026-04-26 13:58 | -32.00529 | 115.36211 | 1807 ft | 150 kts | 91° |
| 2026-04-26 13:58 | -32.00538 | 115.37440 | 1806 ft | 150 kts | 91° |
| 2026-04-26 13:58 | -32.00547 | 115.38671 | 1809 ft | 150 kts | 91° |
| 2026-04-26 13:58 | -32.00554 | 115.39902 | 1810 ft | 150 kts | 91° |
| 2026-04-26 13:59 | -32.00563 | 115.41137 | 1792 ft | 152 kts | 91° |
| 2026-04-26 13:59 | -32.00571 | 115.42380 | 1725 ft | 145 kts | 91° |
| 2026-04-26 13:59 | -32.00579 | 115.43506 | 1634 ft | 134 kts | 91° |
| 2026-04-26 14:00 | -32.00596 | 115.46760 | 1120 ft | 132 kts | 91° |
| 2026-04-26 14:00 | -32.00600 | 115.47782 | 965 ft | 110 kts | 91° |
| 2026-04-26 14:00 | -32.00601 | 115.48356 | 856 ft | 98 kts | 90° |
| 2026-04-26 14:01 | -32.00603 | 115.49362 | 686 ft | 89 kts | 91° |
| 2026-04-26 14:01 | -32.00615 | 115.50093 | 526 ft | 89 kts | 91° |
| 2026-04-26 14:01 | -32.00609 | 115.50825 | 378 ft | 91 kts | 92° |
| 2026-04-26 14:01 | -32.00614 | 115.51596 | 319 ft | 97 kts | 90° |
| 2026-04-26 14:02 | -32.00620 | 115.52405 | 222 ft | 99 kts | 91° |
| 2026-04-26 14:02 | -32.00625 | 115.53177 | 67 ft | 91 kts | 90° |
| 2026-04-26 14:02 | -32.00625 | 115.53849 | 14 ft | 66 kts | 90° |
| 2026-04-26 14:02 | -32.00628 | 115.54164 | 12 ft | 18 kts | 86° |
| 2026-04-26 14:03 | -32.00584 | 115.54210 | 11 ft | 9 kts | 358° |
| 2026-04-26 14:03 | -32.00553 | 115.54214 | 10 ft | 2 kts | 17° |
| 2026-04-26 14:03 | -32.00549 | 115.54216 | 10 ft | 2 kts | 25° |
| 2026-04-26 14:03 | -32.00536 | 115.54225 | 10 ft | 0 kts | 43° |